Weather at İstanbul Atatürk Airport

Public forecast

Using degrees Celsius for public forecast. Weather courtesy of forecast.io.

Current aviation weather report (METAR) for İstanbul Atatürk Airport

2024/05/30 15:20 (retrieved 35 minutes ago)

LTBA 301520Z 19004KT 150V230 CAVOK 24/15 Q1010 RMK RWY23 22007KT 190V260

Aviation forecast (TAF) for İstanbul Atatürk Airport

2024/05/30 12:03 (retrieved 4 hours ago)

TAF LTBA 301040Z 3012/3112 23012KT 9999 FEW032 BECMG 3015/3018 VRB02KT CAVOK BECMG 3105/3108 23012KT